Time;durP1;ratioP1;P1;durP2;ratioP2;P2;SDS_P1;SDS_P2;PMS_P1;PMS_P2;Temp;Humidity;BMP_temperature;BMP_pressure;BME280_temperature;BME280_humidity;BME280_pressure;Samples;Min_cycle;Max_cycle;Signal;HPM_P1;HPM_P2
2023/09/21 00:00:20;;;;;;;4.73;3.57;;;16.70;1.00;;;;;;5000311;28;20473;-53
2023/09/21 00:02:50;;;;;;;4.07;3.10;;;16.70;1.00;;;;;;5002077;28;20197;-54
2023/09/21 00:05:21;;;;;;;3.80;2.77;;;16.60;1.00;;;;;;4999740;28;20865;-53
2023/09/21 00:07:47;;;;;;;4.97;2.77;;;16.60;1.00;;;;;;5003741;28;20530;-54
2023/09/21 00:10:13;;;;;;;7.20;3.10;;;16.60;1.00;;;;;;4999824;28;20579;-53
2023/09/21 00:12:40;;;;;;;4.50;3.30;;;16.60;1.00;;;;;;5002167;28;20674;-53
2023/09/21 00:15:06;;;;;;;4.30;2.73;;;16.70;1.00;;;;;;5006432;28;20440;-53
2023/09/21 00:17:37;;;;;;;3.43;2.97;;;16.70;1.00;;;;;;4999773;28;20438;-53
2023/09/21 00:20:23;;;;;;;5.07;3.30;;;16.60;1.00;;;;;;5001909;28;20941;-53
2023/09/21 00:22:55;;;;;;;6.17;3.10;;;16.60;1.00;;;;;;5003903;28;20963;-53
2023/09/21 00:25:23;;;;;;;6.57;3.23;;;16.50;1.00;;;;;;5000685;28;20439;-53
2023/09/21 00:27:49;;;;;;;8.60;3.07;;;16.60;1.00;;;;;;5005881;28;20534;-53
2023/09/21 00:30:14;;;;;;;4.57;2.63;;;16.70;1.00;;;;;;4999033;28;20534;-51
2023/09/21 00:32:43;;;;;;;4.07;3.00;;;16.70;1.00;;;;;;5001592;28;20185;-54
2023/09/21 00:35:10;;;;;;;5.10;2.80;;;16.70;1.00;;;;;;4997387;28;20276;-53
2023/09/21 00:37:40;;;;;;;3.50;2.80;;;16.70;1.00;;;;;;5002646;28;20450;-52
2023/09/21 00:40:18;;;;;;;5.90;3.37;;;16.70;1.00;;;;;;5002479;28;20817;-54
2023/09/21 00:42:47;;;;;;;6.40;3.40;;;16.70;1.00;;;;;;4996254;28;20944;-52
2023/09/21 00:45:18;;;;;;;5.53;3.00;;;16.70;1.00;;;;;;5007015;28;20539;-53
2023/09/21 00:47:49;;;;;;;3.90;2.87;;;16.70;1.00;;;;;;5003197;28;20559;-53
2023/09/21 00:50:22;;;;;;;4.63;3.23;;;16.70;1.00;;;;;;5007114;28;20474;-53
2023/09/21 00:52:52;;;;;;;4.40;3.03;;;16.60;1.00;;;;;;5006380;28;20541;-53
2023/09/21 00:55:24;;;;;;;6.73;3.20;;;16.60;1.00;;;;;;5004605;28;20439;-52
2023/09/21 00:57:55;;;;;;;3.50;3.03;;;16.70;1.00;;;;;;5006392;28;20432;-52
2023/09/21 01:00:26;;;;;;;4.80;2.83;;;16.60;99.90;;;;;;5003850;28;21696;-53
2023/09/21 01:02:59;;;;;;;5.73;2.93;;;16.60;1.00;;;;;;5004671;28;20452;-53
2023/09/21 01:05:24;;;;;;;4.97;2.70;;;16.60;1.00;;;;;;5008377;28;20474;-53
2023/09/21 01:07:50;;;;;;;6.83;2.97;;;16.50;1.00;;;;;;5003457;28;20468;-54
2023/09/21 01:10:21;;;;;;;5.80;2.70;;;16.50;1.00;;;;;;5007362;28;20192;-53
2023/09/21 01:12:51;;;;;;;4.40;2.90;;;16.40;1.00;;;;;;5002420;28;20955;-53
2023/09/21 01:15:17;;;;;;;4.97;2.70;;;16.40;1.00;;;;;;5002236;28;20457;-52
2023/09/21 01:17:47;;;;;;;5.17;2.93;;;16.40;1.00;;;;;;5003404;28;21071;-52
2023/09/21 01:20:28;;;;;;;5.23;3.00;;;16.40;1.00;;;;;;5004296;28;20583;-53
2023/09/21 01:23:11;;;;;;;6.60;3.00;;;16.40;1.00;;;;;;4999464;28;20833;-53
2023/09/21 01:25:41;;;;;;;3.70;3.00;;;16.50;1.00;;;;;;4998973;28;21015;-53
2023/09/21 01:28:16;;;;;;;3.90;2.73;;;16.40;1.00;;;;;;5011564;28;20483;-55
2023/09/21 01:30:43;;;;;;;3.20;2.80;;;16.40;1.00;;;;;;5002744;28;20495;-52
2023/09/21 01:33:09;;;;;;;3.50;2.70;;;16.30;1.00;;;;;;5005402;28;20947;-53
2023/09/21 01:35:38;;;;;;;3.23;2.90;;;16.30;1.00;;;;;;5010491;28;20466;-53
2023/09/21 01:38:08;;;;;;;3.07;2.77;;;16.20;1.00;;;;;;4999150;28;20176;-53
2023/09/21 01:40:34;;;;;;;5.43;3.07;;;16.20;1.00;;;;;;5003266;28;20483;-52
2023/09/21 01:43:14;;;;;;;5.20;3.07;;;16.10;1.00;;;;;;5008381;28;20789;-53
2023/09/21 01:45:42;;;;;;;3.80;3.20;;;16.10;1.00;;;;;;5003496;28;20440;-53
2023/09/21 01:48:08;;;;;;;5.50;2.70;;;16.10;1.00;;;;;;5003677;28;20453;-53
2023/09/21 01:50:39;;;;;;;5.90;2.87;;;16.10;1.00;;;;;;5002921;28;20436;-53
2023/09/21 01:53:06;;;;;;;3.17;2.80;;;16.10;1.00;;;;;;4999984;28;20493;-54
2023/09/21 01:55:31;;;;;;;4.33;2.90;;;16.10;1.00;;;;;;5003483;28;20446;-53
2023/09/21 01:57:57;;;;;;;2.83;2.63;;;16.10;1.00;;;;;;5002736;28;20783;-53
2023/09/21 02:00:27;;;;;;;3.90;3.07;;;16.00;1.00;;;;;;4998948;28;20612;-53
2023/09/21 02:02:54;;;;;;;3.13;2.50;;;16.00;1.00;;;;;;5010353;28;20222;-54
2023/09/21 02:05:20;;;;;;;4.30;2.60;;;16.00;1.00;;;;;;5003068;28;20439;-54
2023/09/21 02:07:47;;;;;;;4.07;2.30;;;15.90;14.80;;;;;;5003196;28;20443;-52
2023/09/21 02:10:15;;;;;;;2.93;2.60;;;15.90;99.90;;;;;;5006419;28;20478;-53
2023/09/21 02:12:51;;;;;;;3.83;3.13;;;15.90;97.00;;;;;;5005798;28;20485;-54
2023/09/21 02:15:17;;;;;;;3.93;2.63;;;15.80;99.90;;;;;;5008717;28;20438;-52
2023/09/21 02:17:43;;;;;;;4.97;2.67;;;15.80;99.90;;;;;;5001513;28;20785;-53
2023/09/21 02:20:14;;;;;;;6.00;2.93;;;15.80;99.90;;;;;;5004416;28;20211;-53
2023/09/21 02:22:47;;;;;;;3.63;2.57;;;15.80;99.90;;;;;;5004236;28;20315;-51
2023/09/21 02:25:13;;;;;;;4.40;2.67;;;15.70;99.90;;;;;;5005698;28;20463;-53
2023/09/21 02:27:46;;;;;;;3.93;2.83;;;15.70;99.90;;;;;;5006516;28;20435;-53
2023/09/21 02:30:14;;;;;;;3.13;2.73;;;15.70;99.90;;;;;;4998230;28;20839;-50
2023/09/21 02:32:41;;;;;;;4.87;3.20;;;15.70;99.90;;;;;;5001813;28;20851;-53
2023/09/21 02:35:14;;;;;;;6.00;3.07;;;15.70;99.90;;;;;;5002102;28;20850;-52
2023/09/21 02:37:47;;;;;;;5.37;2.90;;;15.60;99.90;;;;;;5006498;28;20455;-53
2023/09/21 02:40:16;;;;;;;6.13;2.97;;;15.60;99.90;;;;;;5002818;28;20592;-53
2023/09/21 02:42:43;;;;;;;4.27;2.80;;;15.60;99.90;;;;;;5000470;28;21021;-53
2023/09/21 02:45:10;;;;;;;5.10;3.00;;;15.50;1.00;;;;;;5005389;28;20444;-53
2023/09/21 02:47:37;;;;;;;6.60;3.17;;;15.50;1.00;;;;;;5005810;28;20446;-53
2023/09/21 02:50:14;;;;;;;5.37;3.37;;;15.40;1.00;;;;;;4998239;28;20498;-53
2023/09/21 02:52:47;;;;;;;3.00;2.70;;;15.50;1.00;;;;;;5002916;28;20483;-51
2023/09/21 02:55:20;;;;;;;4.27;3.17;;;15.50;1.00;;;;;;5002213;28;20829;-53
2023/09/21 02:57:49;;;;;;;5.97;2.87;;;15.40;1.00;;;;;;5001215;28;20434;-53
2023/09/21 03:00:23;;;;;;;3.03;2.60;;;15.40;1.00;;;;;;5005007;28;20495;-52
2023/09/21 03:02:49;;;;;;;2.90;2.60;;;15.40;1.00;;;;;;5004580;28;20447;-52
2023/09/21 03:05:18;;;;;;;3.93;2.70;;;15.50;1.00;;;;;;5000225;28;20444;-52
2023/09/21 03:07:47;;;;;;;3.20;2.87;;;15.60;1.00;;;;;;5002029;28;20962;-52
2023/09/21 03:10:13;;;;;;;6.60;2.87;;;15.50;99.90;;;;;;5004469;28;20458;-53
2023/09/21 03:12:39;;;;;;;8.13;2.90;;;15.50;99.90;;;;;;4999832;28;20459;-53
2023/09/21 03:15:15;;;;;;;3.50;2.70;;;15.40;99.90;;;;;;5004605;28;20950;-53
2023/09/21 03:17:41;;;;;;;4.80;3.33;;;15.40;1.00;;;;;;5000539;28;20538;-53
2023/09/21 03:20:12;;;;;;;5.97;3.43;;;15.30;1.00;;;;;;5001370;28;20482;-53
2023/09/21 03:22:38;;;;;;;2.87;2.67;;;15.30;1.00;;;;;;5001465;28;20486;-52
2023/09/21 03:25:11;;;;;;;9.37;3.20;;;15.40;1.00;;;;;;5001831;28;20465;-52
2023/09/21 03:27:40;;;;;;;4.50;2.67;;;15.40;1.00;;;;;;5004596;28;20457;-52
2023/09/21 03:30:10;;;;;;;3.70;3.00;;;15.40;1.00;;;;;;5006892;28;20530;-54
2023/09/21 03:32:38;;;;;;;3.93;3.00;;;15.30;1.00;;;;;;4997755;28;20463;-53
2023/09/21 03:35:06;;;;;;;5.70;3.30;;;15.20;1.00;;;;;;5001403;28;20446;-51
2023/09/21 03:37:31;;;;;;;4.00;2.57;;;15.20;1.00;;;;;;4998273;28;20521;-53
2023/09/21 03:39:57;;;;;;;3.60;3.00;;;15.20;1.00;;;;;;4997982;28;20991;-53
2023/09/21 03:42:23;;;;;;;3.33;3.03;;;15.20;1.00;;;;;;4997430;28;20200;-51
2023/09/21 03:44:49;;;;;;;4.37;3.30;;;15.20;1.00;;;;;;5008311;28;20203;-53
2023/09/21 03:47:17;;;;;;;4.33;2.83;;;15.20;94.60;;;;;;4998894;28;20713;-53
2023/09/21 03:49:44;;;;;;;7.53;3.20;;;15.20;1.00;;;;;;5001214;28;20637;-55
2023/09/21 03:52:15;;;;;;;4.13;3.13;;;15.20;1.00;;;;;;4998070;28;22258;-53
2023/09/21 03:54:42;;;;;;;5.00;3.30;;;15.20;40.50;;;;;;5001733;28;20499;-53
2023/09/21 03:57:11;;;;;;;3.83;3.43;;;15.20;1.00;;;;;;4999878;28;20450;-53
2023/09/21 03:59:37;;;;;;;4.43;3.10;;;15.10;45.00;;;;;;5004456;28;20567;-52
2023/09/21 04:02:03;;;;;;;5.30;3.50;;;15.10;99.90;;;;;;5003653;28;20452;-54
2023/09/21 04:04:30;;;;;;;4.33;3.13;;;15.10;99.90;;;;;;5002926;28;20431;-52
2023/09/21 04:06:56;;;;;;;6.77;2.90;;;15.10;99.90;;;;;;5004749;28;20299;-52
2023/09/21 04:09:22;;;;;;;5.13;3.40;;;15.10;99.90;;;;;;5002469;28;20639;-53
2023/09/21 04:11:47;;;;;;;6.67;2.90;;;15.20;99.90;;;;;;4999579;28;20445;-52
2023/09/21 04:14:13;;;;;;;3.63;3.23;;;15.20;99.90;;;;;;5004112;28;20191;-53
2023/09/21 04:16:38;;;;;;;5.30;3.70;;;15.30;20.30;;;;;;5000254;28;20191;-54
2023/09/21 04:19:05;;;;;;;7.23;3.27;;;15.30;7.30;;;;;;5000923;28;20686;-54
2023/09/21 04:21:34;;;;;;;6.90;3.40;;;15.40;1.00;;;;;;4995936;28;20207;-52
2023/09/21 04:24:00;;;;;;;4.27;3.33;;;15.40;1.00;;;;;;4998473;28;20528;-53
2023/09/21 04:26:25;;;;;;;5.77;2.93;;;15.50;1.00;;;;;;4999189;28;20436;-54
2023/09/21 04:28:51;;;;;;;4.03;3.03;;;15.50;99.90;;;;;;5002435;28;20196;-53
2023/09/21 04:31:16;;;;;;;4.90;2.93;;;15.50;99.90;;;;;;5000348;28;20191;-52
2023/09/21 04:33:42;;;;;;;6.23;3.23;;;15.50;99.90;;;;;;4999953;28;20272;-53
2023/09/21 04:36:07;;;;;;;5.03;3.50;;;15.60;99.90;;;;;;5001716;28;20554;-52
2023/09/21 04:38:34;;;;;;;4.03;3.37;;;15.60;99.90;;;;;;4999380;28;20673;-53
2023/09/21 04:41:00;;;;;;;5.17;3.00;;;15.70;96.10;;;;;;5001848;28;20580;-53
2023/09/21 04:43:28;;;;;;;5.93;3.27;;;15.60;21.30;;;;;;5000729;28;20992;-51
2023/09/21 04:45:54;;;;;;;3.50;3.13;;;15.70;41.30;;;;;;5001905;28;20541;-53
2023/09/21 04:48:20;;;;;;;3.43;3.13;;;15.60;8.40;;;;;;5005953;28;20542;-52
2023/09/21 04:50:51;;;;;;;4.77;3.50;;;15.70;1.00;;;;;;5003264;28;20188;-53
2023/09/21 04:53:16;;;;;;;4.53;3.00;;;15.70;1.00;;;;;;5004040;28;20204;-52
2023/09/21 04:55:42;;;;;;;9.40;3.17;;;15.60;1.00;;;;;;5001314;28;20443;-53
2023/09/21 04:58:08;;;;;;;5.57;4.07;;;15.60;1.00;;;;;;5001462;28;20270;-54
2023/09/21 05:00:33;;;;;;;4.30;3.57;;;15.60;1.00;;;;;;4999428;28;20828;-53
2023/09/21 05:02:59;;;;;;;5.83;2.93;;;15.50;1.00;;;;;;5005843;28;20588;-52
2023/09/21 05:05:26;;;;;;;7.20;3.37;;;15.50;1.00;;;;;;4999741;28;20298;-53
2023/09/21 05:07:53;;;;;;;5.10;3.10;;;15.50;7.40;;;;;;5000430;28;20184;-53
2023/09/21 05:10:18;;;;;;;5.60;3.30;;;15.50;1.00;;;;;;5004501;28;20479;-52
2023/09/21 05:12:46;;;;;;;8.80;3.43;;;15.50;19.60;;;;;;4998720;28;20482;-53
2023/09/21 05:15:14;;;;;;;6.40;3.60;;;15.50;8.10;;;;;;4996466;28;20288;-53
2023/09/21 05:17:40;;;;;;;5.30;3.43;;;15.50;6.50;;;;;;4999251;28;20448;-52
2023/09/21 05:20:09;;;;;;;4.20;3.00;;;15.50;1.00;;;;;;4997700;28;20481;-53
2023/09/21 05:22:35;;;;;;;4.50;3.17;;;15.60;1.00;;;;;;5000390;28;20733;-53
2023/09/21 05:25:02;;;;;;;6.50;3.30;;;15.60;1.00;;;;;;5001263;28;20474;-52
2023/09/21 05:27:31;;;;;;;5.73;3.30;;;15.60;1.00;;;;;;4999358;28;20432;-52
2023/09/21 05:30:01;;;;;;;7.50;3.70;;;15.60;1.00;;;;;;4999345;28;20528;-52
2023/09/21 05:32:27;;;;;;;8.60;3.90;;;15.60;1.00;;;;;;5002718;28;20452;-52
2023/09/21 05:34:52;;;;;;;9.27;3.47;;;15.60;1.00;;;;;;5002548;28;20440;-53
2023/09/21 05:37:19;;;;;;;4.40;3.70;;;15.60;1.00;;;;;;5000879;28;21057;-52
2023/09/21 05:39:46;;;;;;;5.03;3.30;;;15.60;1.00;;;;;;5007325;28;20221;-51
2023/09/21 05:42:12;;;;;;;5.80;3.77;;;15.60;1.00;;;;;;5003879;28;20475;-53
2023/09/21 05:44:38;;;;;;;7.93;3.90;;;15.60;1.00;;;;;;5001371;28;20432;-52
2023/09/21 05:47:04;;;;;;;6.30;3.80;;;15.50;1.00;;;;;;4999700;28;20840;-54
2023/09/21 05:49:32;;;;;;;6.00;3.30;;;15.60;1.00;;;;;;4999594;28;20447;-54
2023/09/21 05:51:58;;;;;;;4.60;3.30;;;15.60;1.00;;;;;;5004671;28;20203;-53
2023/09/21 05:54:24;;;;;;;7.00;3.83;;;15.70;1.00;;;;;;5000962;28;20435;-52
2023/09/21 05:56:55;;;;;;;8.80;3.70;;;15.70;1.00;;;;;;5004525;28;20443;-53
2023/09/21 05:59:22;;;;;;;7.63;3.40;;;15.70;1.00;;;;;;5003205;28;20464;-53
2023/09/21 06:01:48;;;;;;;11.40;4.30;;;15.70;1.00;;;;;;5003017;28;20439;-53
2023/09/21 06:04:16;;;;;;;5.73;3.53;;;15.80;1.00;;;;;;5004502;28;20468;-54
2023/09/21 06:06:43;;;;;;;7.70;3.60;;;15.80;1.00;;;;;;5003479;28;20455;-53
2023/09/21 06:09:10;;;;;;;6.43;3.60;;;15.90;1.00;;;;;;5002759;28;20444;-53
2023/09/21 06:11:35;;;;;;;3.43;3.13;;;16.00;99.90;;;;;;4999972;28;20811;-50
2023/09/21 06:14:02;;;;;;;6.27;3.60;;;16.10;99.90;;;;;;4998953;28;20538;-55
2023/09/21 06:16:29;;;;;;;6.23;3.30;;;16.10;99.90;;;;;;5003549;28;20193;-53
2023/09/21 06:18:55;;;;;;;4.87;3.20;;;16.20;99.90;;;;;;5000479;28;20809;-53
2023/09/21 06:21:20;;;;;;;8.40;3.30;;;16.20;99.90;;;;;;5000878;28;20448;-53
2023/09/21 06:23:49;;;;;;;5.00;3.47;;;16.30;99.90;;;;;;5004639;28;20476;-53
2023/09/21 06:26:15;;;;;;;6.03;3.03;;;16.40;99.90;;;;;;5002727;28;20203;-53
2023/09/21 06:28:47;;;;;;;4.00;2.90;;;16.50;99.90;;;;;;4998787;28;20605;-54
2023/09/21 06:31:13;;;;;;;5.20;3.00;;;16.50;99.90;;;;;;4999040;28;20448;-53
2023/09/21 06:33:40;;;;;;;4.80;3.60;;;16.60;99.90;;;;;;5003832;28;20451;-53
2023/09/21 06:36:14;;;;;;;4.53;3.43;;;16.70;99.90;;;;;;5004442;28;20479;-53
2023/09/21 06:38:43;;;;;;;5.03;3.00;;;16.80;98.40;;;;;;5001981;28;20444;-52
2023/09/21 06:41:12;;;;;;;4.43;3.67;;;16.90;92.50;;;;;;5001826;28;20482;-53
2023/09/21 06:43:39;;;;;;;7.30;3.50;;;17.00;62.30;;;;;;4998218;28;20452;-53
2023/09/21 06:46:05;;;;;;;6.10;3.77;;;17.00;40.20;;;;;;4998273;28;20472;-55
2023/09/21 06:48:31;;;;;;;5.47;3.70;;;17.10;35.30;;;;;;4997729;28;20494;-54
2023/09/21 06:50:57;;;;;;;4.63;3.43;;;17.10;20.10;;;;;;4998857;28;20647;-54
2023/09/21 06:53:23;;;;;;;5.63;3.20;;;17.20;11.20;;;;;;5007645;28;20668;-53
2023/09/21 06:55:49;;;;;;;6.20;3.80;;;17.30;12.20;;;;;;4999870;28;20445;-52
2023/09/21 06:58:15;;;;;;;6.67;3.80;;;17.40;1.00;;;;;;4998840;28;20249;-53
2023/09/21 07:00:41;;;;;;;5.07;3.50;;;17.60;1.00;;;;;;4998544;28;20961;-54
2023/09/21 07:03:06;;;;;;;8.57;3.47;;;17.90;1.00;;;;;;4997997;28;20446;-53
2023/09/21 07:05:32;;;;;;;3.90;3.10;;;18.30;1.00;;;;;;4998669;28;20279;-53
2023/09/21 07:07:57;;;;;;;5.30;3.43;;;18.80;1.00;;;;;;4998627;28;20192;-53
2023/09/21 07:10:23;;;;;;;7.03;3.43;;;19.30;1.00;;;;;;4997396;28;20201;-53
2023/09/21 07:12:50;;;;;;;7.63;3.43;;;19.80;1.00;;;;;;5001242;28;20184;-54
2023/09/21 07:15:15;;;;;;;5.10;2.97;;;20.30;1.00;;;;;;5000716;28;20195;-53
2023/09/21 07:17:41;;;;;;;7.47;3.63;;;20.80;1.00;;;;;;4998995;28;20514;-53
2023/09/21 07:20:07;;;;;;;9.70;3.70;;;21.30;1.00;;;;;;4997578;28;20219;-53
2023/09/21 07:22:33;;;;;;;5.27;3.10;;;21.70;1.00;;;;;;5001123;28;20513;-53
2023/09/21 07:25:03;;;;;;;5.97;3.80;;;22.10;1.00;;;;;;4997775;28;20476;-53
2023/09/21 07:27:28;;;;;;;5.90;3.20;;;22.50;1.00;;;;;;5001332;28;20712;-54
2023/09/21 07:29:57;;;;;;;6.63;3.40;;;22.90;1.00;;;;;;5001772;28;20452;-53
2023/09/21 07:32:25;;;;;;;5.30;2.57;;;23.30;1.00;;;;;;5001527;28;20653;-53
2023/09/21 07:34:51;;;;;;;6.07;3.00;;;23.60;1.00;;;;;;4997016;28;20443;-54
2023/09/21 07:37:16;;;;;;;8.03;3.10;;;23.70;1.00;;;;;;4998225;28;20531;-53
2023/09/21 07:39:42;;;;;;;7.13;2.97;;;24.00;1.00;;;;;;4996944;28;20558;-52
2023/09/21 07:42:09;;;;;;;3.53;3.13;;;24.30;1.00;;;;;;4997629;28;20219;-51
2023/09/21 07:44:35;;;;;;;6.90;2.90;;;24.50;1.00;;;;;;5003807;28;20471;-52
2023/09/21 07:47:00;;;;;;;6.10;3.20;;;24.80;1.00;;;;;;4998603;28;20525;-52
2023/09/21 07:49:26;;;;;;;5.50;2.67;;;25.10;1.00;;;;;;4997368;28;20780;-51
2023/09/21 07:51:55;;;;;;;4.90;3.00;;;25.20;1.00;;;;;;5001021;28;20283;-52
2023/09/21 07:54:21;;;;;;;7.80;3.40;;;25.30;1.00;;;;;;5001522;28;20238;-50
2023/09/21 07:56:47;;;;;;;5.77;2.83;;;25.60;1.00;;;;;;4997360;28;20467;-52
2023/09/21 07:59:12;;;;;;;4.67;2.90;;;25.90;1.00;;;;;;4995881;28;20467;-51
2023/09/21 08:01:38;;;;;;;4.73;2.77;;;26.20;1.00;;;;;;4997175;28;20212;-52
2023/09/21 08:04:04;;;;;;;4.13;3.03;;;26.50;1.00;;;;;;4999417;28;20530;-52
2023/09/21 08:06:29;;;;;;;5.17;3.07;;;26.50;1.00;;;;;;5000637;28;20192;-52
2023/09/21 08:08:57;;;;;;;3.23;2.83;;;26.20;1.00;;;;;;5001757;28;20282;-52
2023/09/21 08:11:23;;;;;;;4.60;2.73;;;26.20;1.00;;;;;;4997200;28;20204;-52
2023/09/21 08:13:49;;;;;;;8.03;3.00;;;26.40;1.00;;;;;;4996602;28;20438;-52
2023/09/21 08:16:15;;;;;;;4.30;3.17;;;26.80;1.00;;;;;;4996757;28;20199;-51
2023/09/21 08:18:41;;;;;;;7.07;3.07;;;27.00;1.00;;;;;;4997339;28;20448;-52
2023/09/21 08:21:09;;;;;;;7.17;3.03;;;27.40;1.00;;;;;;5000854;28;20312;-52
2023/09/21 08:23:35;;;;;;;5.13;3.10;;;27.60;1.00;;;;;;4996169;28;20235;-53
2023/09/21 08:26:02;;;;;;;5.13;3.33;;;27.80;1.00;;;;;;4997010;28;20526;-51
2023/09/21 08:28:29;;;;;;;6.00;2.97;;;28.10;1.00;;;;;;4997250;28;20936;-52
2023/09/21 08:30:56;;;;;;;4.37;2.87;;;28.20;1.00;;;;;;5002788;28;20455;-53
2023/09/21 08:33:22;;;;;;;4.80;3.23;;;28.40;1.00;;;;;;5002098;28;20447;-52
2023/09/21 08:35:48;;;;;;;4.90;3.03;;;28.40;1.00;;;;;;5000612;28;20490;-52
2023/09/21 08:38:14;;;;;;;4.10;2.70;;;28.60;1.00;;;;;;5004206;28;20184;-50
2023/09/21 08:40:43;;;;;;;7.63;2.70;;;28.60;99.90;;;;;;4999958;28;20493;-50
2023/09/21 08:43:14;;;;;;;4.20;2.90;;;28.70;99.90;;;;;;4996178;28;20458;-51
2023/09/21 08:45:40;;;;;;;7.00;2.93;;;28.70;99.90;;;;;;4996910;28;20475;-50
2023/09/21 08:48:08;;;;;;;4.57;2.73;;;28.00;99.90;;;;;;4999500;28;20438;-51
2023/09/21 08:50:35;;;;;;;4.40;2.90;;;27.20;99.90;;;;;;5002168;28;20207;-50
2023/09/21 08:53:03;;;;;;;3.77;2.70;;;26.50;1.00;;;;;;5000417;28;20811;-52
2023/09/21 08:55:29;;;;;;;4.20;2.57;;;26.00;99.90;;;;;;4996603;28;20951;-52
2023/09/21 08:57:56;;;;;;;4.00;3.10;;;25.50;99.90;;;;;;5001090;28;20467;-52
2023/09/21 09:00:27;;;;;;;6.93;2.50;;;25.00;1.00;;;;;;4996150;28;20247;-52
2023/09/21 09:02:53;;;;;;;6.70;2.87;;;24.60;1.00;;;;;;4997134;28;20440;-52
2023/09/21 09:05:19;;;;;;;8.30;2.90;;;24.20;1.00;;;;;;4996727;28;20440;-52
2023/09/21 09:07:45;;;;;;;3.27;2.90;;;24.00;1.00;;;;;;5003049;28;20535;-52
2023/09/21 09:10:12;;;;;;;3.90;3.10;;;23.80;1.00;;;;;;5000762;28;20607;-52
2023/09/21 09:12:39;;;;;;;3.80;2.40;;;23.60;1.00;;;;;;5006813;28;20191;-52
2023/09/21 09:15:08;;;;;;;2.60;2.40;;;23.50;1.00;;;;;;5003597;28;20485;-52
2023/09/21 09:17:34;;;;;;;6.33;3.33;;;23.50;1.00;;;;;;5007586;28;20444;-52
2023/09/21 09:20:05;;;;;;;6.27;3.20;;;23.60;1.00;;;;;;5007114;28;20524;-52
2023/09/21 09:22:34;;;;;;;5.10;2.70;;;23.50;1.00;;;;;;5003571;28;20494;-52
2023/09/21 09:25:04;;;;;;;3.63;2.80;;;23.50;1.00;;;;;;5003622;28;20431;-52
2023/09/21 09:27:31;;;;;;;4.27;2.70;;;23.70;1.00;;;;;;5007782;28;20447;-52
2023/09/21 09:29:57;;;;;;;7.57;2.90;;;23.90;1.00;;;;;;4999752;28;20506;-52
2023/09/21 09:32:23;;;;;;;3.43;2.70;;;24.10;1.00;;;;;;5003988;28;20444;-52
2023/09/21 09:34:50;;;;;;;9.40;3.10;;;24.20;1.00;;;;;;5001658;28;20782;-52
2023/09/21 09:37:16;;;;;;;3.80;2.73;;;24.40;1.00;;;;;;5007468;28;20462;-52
2023/09/21 09:39:43;;;;;;;5.90;3.03;;;24.40;1.00;;;;;;4999554;28;20502;-52
2023/09/21 09:42:11;;;;;;;6.23;3.30;;;24.40;1.00;;;;;;5005989;28;20450;-52
2023/09/21 09:44:43;;;;;;;3.53;2.60;;;24.30;1.00;;;;;;5007118;28;20598;-52
2023/09/21 09:47:12;;;;;;;4.30;2.43;;;24.20;1.00;;;;;;4999627;28;20435;-52
2023/09/21 09:49:40;;;;;;;4.70;2.90;;;24.30;1.00;;;;;;4999452;28;20434;-52
2023/09/21 09:52:09;;;;;;;5.30;2.60;;;24.30;1.00;;;;;;4999326;28;20580;-52
2023/09/21 09:54:35;;;;;;;6.87;3.33;;;24.50;1.00;;;;;;5002862;28;20449;-52
2023/09/21 09:57:01;;;;;;;6.97;2.70;;;24.80;1.00;;;;;;4999564;28;20928;-52
2023/09/21 09:59:28;;;;;;;4.57;2.60;;;25.00;1.00;;;;;;4999095;28;20471;-52
2023/09/21 10:01:55;;;;;;;5.17;3.00;;;25.10;1.00;;;;;;5002929;28;20193;-52
2023/09/21 10:04:21;;;;;;;4.00;2.50;;;25.20;1.00;;;;;;4999341;28;20936;-52
2023/09/21 10:06:47;;;;;;;5.37;2.77;;;25.50;1.00;;;;;;5001987;28;20440;-52
2023/09/21 10:09:14;;;;;;;4.70;2.50;;;25.70;1.00;;;;;;4999464;28;20447;-52
2023/09/21 10:11:48;;;;;;;3.93;2.97;;;25.80;1.00;;;;;;4999083;28;22604;-52
2023/09/21 10:14:15;;;;;;;7.53;2.60;;;26.10;1.00;;;;;;4999531;28;20485;-52
2023/09/21 10:16:49;;;;;;;4.70;2.47;;;26.30;1.00;;;;;;4999595;28;20518;-52
2023/09/21 10:19:22;;;;;;;2.70;2.00;;;26.60;99.90;;;;;;5000461;28;20455;-52
2023/09/21 10:21:49;;;;;;;5.10;2.63;;;26.90;99.90;;;;;;4998586;28;20455;-52
2023/09/21 10:24:18;;;;;;;5.90;2.50;;;27.30;99.90;;;;;;4998678;28;20552;-52
2023/09/21 10:26:51;;;;;;;11.13;2.80;;;27.50;99.90;;;;;;5003499;28;20498;-50
2023/09/21 10:29:26;;;;;;;6.73;2.60;;;27.80;99.90;;;;;;4999004;28;20448;-52
2023/09/21 10:31:55;;;;;;;9.00;2.80;;;28.10;99.90;;;;;;5006309;28;20435;-50
2023/09/21 10:34:23;;;;;;;3.73;2.33;;;28.40;99.90;;;;;;5004147;28;20443;-50
2023/09/21 10:36:51;;;;;;;4.83;2.53;;;28.50;99.90;;;;;;5002053;28;20940;-50
2023/09/21 10:39:24;;;;;;;5.43;2.17;;;28.40;99.90;;;;;;4998118;28;20469;-50
2023/09/21 10:41:54;;;;;;;2.80;2.60;;;28.30;99.90;;;;;;4999000;28;20442;-50
2023/09/21 10:44:58;;;;;;;4.50;2.80;;;28.10;99.90;;;;;;4998923;28;20821;-52
2023/09/21 10:47:36;;;;;;;3.90;2.80;;;28.20;99.90;;;;;;5003807;28;20446;-48
2023/09/21 10:50:03;;;;;;;5.27;3.00;;;29.10;99.90;;;;;;4998557;28;20498;-51
2023/09/21 10:52:29;;;;;;;3.57;2.40;;;30.00;99.90;;;;;;4999521;28;20483;-50
2023/09/21 10:54:56;;;;;;;2.70;2.40;;;30.90;99.90;;;;;;5004966;28;20471;-51
2023/09/21 10:57:30;;;;;;;3.53;2.30;;;32.00;99.90;;;;;;5001113;28;20975;-51
2023/09/21 11:00:08;;;;;;;5.73;2.40;;;33.00;99.90;;;;;;5003199;28;20475;-50
2023/09/21 11:02:37;;;;;;;6.33;2.57;;;33.70;99.90;;;;;;5002060;28;20510;-51
2023/09/21 11:05:03;;;;;;;6.97;2.90;;;34.30;99.90;;;;;;4999633;28;20439;-51
2023/09/21 11:07:29;;;;;;;5.03;2.00;;;34.00;99.90;;;;;;4999444;28;20436;-52
2023/09/21 11:09:56;;;;;;;3.70;2.33;;;33.60;99.90;;;;;;5004279;28;20435;-51
2023/09/21 11:12:22;;;;;;;2.27;2.07;;;33.20;99.90;;;;;;5001385;28;20447;-52
2023/09/21 11:14:50;;;;;;;2.73;2.10;;;33.10;99.90;;;;;;4998248;28;20990;-52
2023/09/21 11:17:16;;;;;;;5.83;2.53;;;32.80;99.90;;;;;;4998108;28;20815;-52
2023/09/21 11:19:43;;;;;;;3.60;3.03;;;32.20;99.90;;;;;;4996654;28;20483;-49
2023/09/21 11:22:15;;;;;;;3.83;2.80;;;31.50;99.90;;;;;;4996478;28;21049;-52
2023/09/21 11:24:42;;;;;;;5.73;2.27;;;30.80;99.90;;;;;;4998005;28;20443;-52
2023/09/21 11:27:09;;;;;;;6.73;2.50;;;30.00;99.90;;;;;;4998113;28;20444;-52
2023/09/21 11:29:43;;;;;;;7.47;3.13;;;29.40;99.90;;;;;;4998478;28;20495;-52
2023/09/21 11:32:10;;;;;;;2.97;2.53;;;28.90;99.90;;;;;;4997483;28;20445;-52
2023/09/21 11:34:39;;;;;;;3.53;2.60;;;28.60;99.90;;;;;;5000945;28;20447;-52
2023/09/21 11:37:09;;;;;;;5.93;2.80;;;28.40;99.90;;;;;;4999116;28;20444;-51
2023/09/21 11:39:46;;;;;;;4.37;2.10;;;28.10;99.90;;;;;;4998098;28;20498;-51
2023/09/21 11:42:12;;;;;;;7.60;2.50;;;27.90;99.90;;;;;;4997651;28;20447;-51
2023/09/21 11:44:38;;;;;;;4.57;2.33;;;28.30;99.90;;;;;;4997747;28;20923;-51
2023/09/21 11:47:10;;;;;;;2.50;2.30;;;29.60;99.90;;;;;;4996516;28;20451;-52
2023/09/21 11:49:42;;;;;;;2.73;2.40;;;30.60;99.90;;;;;;5001832;28;20197;-52
2023/09/21 11:52:10;;;;;;;7.33;2.27;;;31.30;99.90;;;;;;4996901;28;20446;-52
2023/09/21 11:54:38;;;;;;;4.13;2.50;;;31.60;99.90;;;;;;5000142;28;20439;-52
2023/09/21 11:57:04;;;;;;;3.67;2.30;;;31.40;99.90;;;;;;5000286;28;20448;-52
2023/09/21 11:59:42;;;;;;;4.63;2.30;;;31.10;99.90;;;;;;4997273;28;21002;-52
2023/09/21 12:02:14;;;;;;;7.07;2.70;;;31.20;99.90;;;;;;5003421;28;20509;-52
2023/09/21 12:04:41;;;;;;;4.37;2.60;;;31.80;99.90;;;;;;5003652;28;20430;-52
2023/09/21 12:07:10;;;;;;;6.17;2.33;;;32.40;99.90;;;;;;4997266;28;20440;-52
2023/09/21 12:09:37;;;;;;;2.93;2.30;;;32.90;99.90;;;;;;4997884;28;20444;-52
2023/09/21 12:12:07;;;;;;;3.90;2.27;;;32.70;99.90;;;;;;4997412;28;20463;-52
2023/09/21 12:14:34;;;;;;;9.40;2.53;;;32.10;99.90;;;;;;4996965;28;20455;-53
2023/09/21 12:17:09;;;;;;;3.90;2.00;;;31.50;99.90;;;;;;4997547;28;20447;-53
2023/09/21 12:19:36;;;;;;;5.20;2.50;;;31.00;99.90;;;;;;5012075;28;20478;-53
2023/09/21 12:22:06;;;;;;;7.67;2.47;;;30.80;99.90;;;;;;4997336;28;20474;-52
2023/09/21 12:24:34;;;;;;;5.10;2.40;;;30.60;99.90;;;;;;4997005;28;20534;-53
2023/09/21 12:27:00;;;;;;;4.70;2.27;;;30.30;99.90;;;;;;5000154;28;20437;-53
2023/09/21 12:29:26;;;;;;;3.13;2.80;;;30.30;99.90;;;;;;4999280;28;20452;-53
2023/09/21 12:31:51;;;;;;;6.80;3.00;;;30.50;99.90;;;;;;4996269;28;20470;-53
2023/09/21 12:34:19;;;;;;;7.50;2.27;;;31.40;99.90;;;;;;4996614;28;20192;-52
2023/09/21 12:36:48;;;;;;;3.50;2.37;;;32.10;99.90;;;;;;5000366;28;20192;-52
2023/09/21 12:39:14;;;;;;;4.90;2.10;;;32.10;99.90;;;;;;4996542;28;20440;-53
2023/09/21 12:41:43;;;;;;;2.70;2.00;;;32.10;99.90;;;;;;4996509;28;20448;-53
2023/09/21 12:44:10;;;;;;;2.03;1.83;;;31.90;99.90;;;;;;4996596;28;20441;-53
2023/09/21 12:46:37;;;;;;;2.93;2.27;;;31.50;99.90;;;;;;5001636;28;20488;-52
2023/09/21 12:49:04;;;;;;;3.30;2.53;;;31.70;99.90;;;;;;5006053;28;20443;-52
2023/09/21 12:51:30;;;;;;;4.10;2.00;;;31.90;99.90;;;;;;5006264;28;20527;-53
2023/09/21 12:53:56;;;;;;;6.03;2.30;;;31.60;99.90;;;;;;5003078;28;20451;-53
2023/09/21 12:56:22;;;;;;;4.93;2.10;;;31.70;99.90;;;;;;5002673;28;20528;-52